createdAt,value
2022-09-15T00:00:38.050Z,21.17
2022-09-15T00:01:27.180Z,21.93
2022-09-15T00:02:14.072Z,21.84
2022-09-15T00:03:00.715Z,22.05
2022-09-15T00:03:47.842Z,22.27
2022-09-15T00:04:34.216Z,23.57
2022-09-15T00:05:21.227Z,21.91
2022-09-15T00:06:09.707Z,20.65
2022-09-15T00:06:56.156Z,21.08
2022-09-15T00:07:42.580Z,21.44
2022-09-15T00:08:29.172Z,22.34
2022-09-15T00:09:15.655Z,20.63
2022-09-15T00:10:03.698Z,20.33
2022-09-15T00:10:58.446Z,21.71
2022-09-15T00:11:45.907Z,21.44
2022-09-15T00:12:33.615Z,21.11
2022-09-15T00:13:21.630Z,20.76
2022-09-15T00:14:09.040Z,20.41
2022-09-15T00:14:56.657Z,20.73
2022-09-15T00:15:43.389Z,21.85
2022-09-15T00:16:31.674Z,21.38
2022-09-15T00:17:18.303Z,20.51
2022-09-15T00:18:05.060Z,21.33
2022-09-15T00:18:52.050Z,21.87
2022-09-15T00:19:38.698Z,21.19
2022-09-15T00:20:25.245Z,21.41
2022-09-15T00:21:15.125Z,21.55
2022-09-15T00:22:01.679Z,21.56
2022-09-15T00:22:49.019Z,22.31
2022-09-15T00:23:36.304Z,22.78
2022-09-15T00:24:22.718Z,21.82
2022-09-15T00:25:09.379Z,21.32
2022-09-15T00:25:55.804Z,21.76
2022-09-15T00:26:42.295Z,20.73
2022-09-15T00:27:32.460Z,21.43
2022-09-15T00:28:21.214Z,20.59
2022-09-15T00:29:09.011Z,20.65
2022-09-15T00:29:55.425Z,21.05
2022-09-15T00:30:47.316Z,20.87
2022-09-15T00:31:33.925Z,19.82
2022-09-15T00:32:20.832Z,20.46
2022-09-15T00:33:07.493Z,21.24
2022-09-15T00:33:58.107Z,20.13
2022-09-15T00:34:44.591Z,19.37
2022-09-15T00:35:30.994Z,19.88
2022-09-15T00:36:19.151Z,19.86
2022-09-15T00:37:06.212Z,20.04
2022-09-15T00:37:52.628Z,19.47
2022-09-15T00:38:39.316Z,19.27
2022-09-15T00:39:25.854Z,19.63
2022-09-15T00:40:12.436Z,19.36
2022-09-15T00:41:00.890Z,19.53
2022-09-15T00:41:47.335Z,19.33
2022-09-15T00:42:33.804Z,18.95
2022-09-15T00:43:40.805Z,18.90
2022-09-15T00:44:36.058Z,20.23
2022-09-15T00:45:22.515Z,20.11
2022-09-15T00:46:09.687Z,20.29
2022-09-15T00:47:17.783Z,18.92
2022-09-15T00:48:08.311Z,18.35
2022-09-15T00:49:01.660Z,18.36
2022-09-15T00:49:58.397Z,19.53
2022-09-15T00:50:53.219Z,20.22
2022-09-15T00:51:48.195Z,20.28
2022-09-15T00:52:43.655Z,18.89
2022-09-15T00:53:32.806Z,19.02
2022-09-15T00:54:26.749Z,19.05
2022-09-15T00:55:26.506Z,18.69
2022-09-15T00:56:16.068Z,19.01
2022-09-15T00:57:08.395Z,18.18
2022-09-15T00:58:01.449Z,19.53
2022-09-15T00:58:58.749Z,17.87
2022-09-15T00:59:48.480Z,18.02
2022-09-15T01:00:35.374Z,18.67
2022-09-15T01:01:26.561Z,18.67
2022-09-15T01:02:21.796Z,18.65
2022-09-15T01:03:08.338Z,19.67
2022-09-15T01:03:55.856Z,19.06
2022-09-15T01:04:42.795Z,19.22
2022-09-15T01:05:42.769Z,19.23
2022-09-15T01:06:40.751Z,19.34
2022-09-15T01:07:52.908Z,19.29
2022-09-15T01:08:47.183Z,19.96
2022-09-15T01:09:51.894Z,19.47
2022-09-15T01:10:41.062Z,20.04
2022-09-15T01:11:28.008Z,19.62
2022-09-15T01:12:15.570Z,19.66
2022-09-15T01:13:07.092Z,19.57
2022-09-15T01:13:53.530Z,20.08
2022-09-15T01:14:40.013Z,20.20
2022-09-15T01:15:58.267Z,19.83
2022-09-15T01:17:12.013Z,19.99
2022-09-15T01:18:20.625Z,19.70
2022-09-15T01:19:25.145Z,19.36
2022-09-15T01:20:48.969Z,19.50
2022-09-15T01:21:45.137Z,19.85
2022-09-15T01:23:08.776Z,19.85
2022-09-15T01:24:22.914Z,20.20
2022-09-15T01:25:54.347Z,19.65
2022-09-15T01:27:30.553Z,18.73
2022-09-15T01:28:41.850Z,19.53
2022-09-15T01:29:51.286Z,18.78
2022-09-15T01:30:42.342Z,19.20
2022-09-15T01:32:09.762Z,18.40
2022-09-15T01:33:27.042Z,19.66
2022-09-15T01:34:20.403Z,18.69
2022-09-15T01:35:22.341Z,17.51
2022-09-15T01:36:21.766Z,17.86
2022-09-15T01:37:17.244Z,18.83
2022-09-15T01:38:15.276Z,18.42
2022-09-15T01:39:15.814Z,18.73
2022-09-15T01:40:03.696Z,17.81
2022-09-15T01:40:59.478Z,17.97
2022-09-15T01:41:52.839Z,17.65
2022-09-15T01:42:42.979Z,17.57
2022-09-15T01:43:33.643Z,18.23
2022-09-15T01:44:29.058Z,17.73
2022-09-15T01:45:24.657Z,17.78
2022-09-15T01:46:16.675Z,18.18
2022-09-15T01:47:09.208Z,18.06
2022-09-15T01:47:59.162Z,19.50
2022-09-15T01:48:49.337Z,19.04
2022-09-15T01:49:54.627Z,17.67
2022-09-15T01:50:47.411Z,17.97
2022-09-15T01:51:36.790Z,17.70
2022-09-15T01:52:24.766Z,17.25
2022-09-15T01:53:21.061Z,17.25
2022-09-15T01:54:09.189Z,17.77
2022-09-15T01:55:01.963Z,16.24
2022-09-15T01:55:55.712Z,16.64
2022-09-15T01:56:42.196Z,16.68
2022-09-15T01:57:33.182Z,16.43
2022-09-15T01:58:21.102Z,16.81
2022-09-15T01:59:09.403Z,16.67
2022-09-15T01:59:56.656Z,16.51
2022-09-15T02:00:53.260Z,16.61
2022-09-15T02:02:07.257Z,16.46
2022-09-15T02:03:04.111Z,15.41
2022-09-15T02:04:04.868Z,16.54
2022-09-15T02:05:03.374Z,17.45
2022-09-15T02:06:01.879Z,17.06
2022-09-15T02:07:07.276Z,16.54
2022-09-15T02:08:06.926Z,17.13
2022-09-15T02:09:02.515Z,15.80
2022-09-15T02:10:09.213Z,15.53
2022-09-15T02:11:26.511Z,17.01
2022-09-15T02:12:45.154Z,16.75
2022-09-15T02:13:39.066Z,16.18
2022-09-15T02:14:52.091Z,16.64
2022-09-15T02:15:48.335Z,16.63
2022-09-15T02:16:36.477Z,17.01
2022-09-15T02:17:31.166Z,18.34
2022-09-15T02:18:34.594Z,17.33
2022-09-15T02:19:32.940Z,15.89
2022-09-15T02:20:33.189Z,17.41
2022-09-15T02:21:29.637Z,16.66
2022-09-15T02:22:24.095Z,16.13
2022-09-15T02:23:27.533Z,16.62
2022-09-15T02:24:25.735Z,16.23
2022-09-15T02:25:18.675Z,16.33
2022-09-15T02:26:11.582Z,16.47
2022-09-15T02:27:01.023Z,16.96
2022-09-15T02:27:52.708Z,17.16
2022-09-15T02:28:42.103Z,17.48
2022-09-15T02:29:34.997Z,16.12
2022-09-15T02:30:22.301Z,15.63
2022-09-15T02:31:14.921Z,15.98
2022-09-15T02:32:07.388Z,16.80
2022-09-15T02:33:09.030Z,16.56
2022-09-15T02:34:03.570Z,15.99
2022-09-15T02:34:54.449Z,16.66
2022-09-15T02:35:42.988Z,16.30
2022-09-15T02:36:31.203Z,16.95
2022-09-15T02:37:22.900Z,17.26
2022-09-15T02:38:11.451Z,16.88
2022-09-15T02:39:05.627Z,15.51
2022-09-15T02:39:57.949Z,15.99
2022-09-15T02:40:44.832Z,17.10
2022-09-15T02:41:35.237Z,17.04
2022-09-15T02:42:31.124Z,16.70
2022-09-15T02:43:18.694Z,16.22
2022-09-15T02:44:05.829Z,16.41
2022-09-15T02:44:52.609Z,17.07
2022-09-15T02:45:39.327Z,16.87
2022-09-15T02:46:25.875Z,17.44
2022-09-15T02:47:13.357Z,17.12
2022-09-15T02:48:00.057Z,16.56
2022-09-15T02:48:46.607Z,16.81
2022-09-15T02:49:33.060Z,17.96
2022-09-15T02:50:20.507Z,17.05
2022-09-15T02:51:07.001Z,17.73
2022-09-15T02:51:53.446Z,17.12
2022-09-15T02:52:39.881Z,17.11
2022-09-15T02:53:26.285Z,17.53
2022-09-15T02:54:12.675Z,16.48
2022-09-15T02:55:00.707Z,16.60
2022-09-15T02:55:47.085Z,16.29
2022-09-15T02:56:33.865Z,17.41
2022-09-15T02:57:20.517Z,17.26
2022-09-15T02:58:06.945Z,17.51
2022-09-15T02:58:53.373Z,17.44
2022-09-15T03:00:03.451Z,16.87
2022-09-15T03:00:55.597Z,17.12
2022-09-15T03:01:42.074Z,16.45
2022-09-15T03:02:28.835Z,17.39
2022-09-15T03:03:15.375Z,17.17
2022-09-15T03:04:03.480Z,17.43
2022-09-15T03:04:50.941Z,16.65
2022-09-15T03:05:37.345Z,17.14
2022-09-15T03:06:24.206Z,16.52
2022-09-15T03:07:10.612Z,16.05
2022-09-15T03:07:57.269Z,16.31
2022-09-15T03:08:58.241Z,16.32
2022-09-15T03:09:45.061Z,16.40
2022-09-15T03:10:33.397Z,16.28
2022-09-15T03:11:22.394Z,16.07
2022-09-15T03:12:09.228Z,15.88
2022-09-15T03:12:56.153Z,16.63
2022-09-15T03:13:42.680Z,16.46
2022-09-15T03:14:29.611Z,16.43
2022-09-15T03:15:19.749Z,16.53
2022-09-15T03:16:12.114Z,16.00
2022-09-15T03:16:59.494Z,15.45
2022-09-15T03:17:47.680Z,15.99
2022-09-15T03:18:34.557Z,16.07
2022-09-15T03:19:20.972Z,14.67
2022-09-15T03:20:09.683Z,14.92
2022-09-15T03:20:57.138Z,15.87
2022-09-15T03:21:43.860Z,16.35
2022-09-15T03:22:31.079Z,16.57
2022-09-15T03:23:17.447Z,15.41
2022-09-15T03:24:04.237Z,14.88
2022-09-15T03:24:51.761Z,15.89
2022-09-15T03:25:38.442Z,15.76
2022-09-15T03:26:25.410Z,14.99
2022-09-15T03:27:11.956Z,15.94
2022-09-15T03:27:58.357Z,15.56
2022-09-15T03:28:44.948Z,14.60
2022-09-15T03:29:31.555Z,14.98
2022-09-15T03:30:18.688Z,15.52
2022-09-15T03:31:08.465Z,14.99
2022-09-15T03:31:54.970Z,15.37
2022-09-15T03:32:41.470Z,14.88
2022-09-15T03:33:29.702Z,15.61
2022-09-15T03:34:16.463Z,15.92
2022-09-15T03:35:04.327Z,15.31
2022-09-15T03:35:52.440Z,14.96
2022-09-15T03:36:38.962Z,15.33
2022-09-15T03:37:25.858Z,14.75
2022-09-15T03:38:14.996Z,14.57
2022-09-15T03:39:01.914Z,15.41
2022-09-15T03:39:49.059Z,15.58
2022-09-15T03:40:36.061Z,15.55
2022-09-15T03:41:22.501Z,14.99
2022-09-15T03:42:09.077Z,15.09
2022-09-15T03:42:55.516Z,15.73
2022-09-15T03:43:41.988Z,15.58
2022-09-15T03:44:28.732Z,15.34
2022-09-15T03:45:15.149Z,14.17
2022-09-15T03:46:02.452Z,15.55
2022-09-15T03:46:49.075Z,15.28
2022-09-15T03:47:35.543Z,14.74
2022-09-15T03:48:23.354Z,14.76
2022-09-15T03:49:09.757Z,15.34
2022-09-15T03:49:56.204Z,15.51
2022-09-15T03:50:42.977Z,16.03
2022-09-15T03:51:29.728Z,15.82
2022-09-15T03:52:16.204Z,16.44
2022-09-15T03:53:03.317Z,16.40
2022-09-15T03:53:49.811Z,15.91
2022-09-15T03:54:36.413Z,15.98
2022-09-15T03:55:22.870Z,15.61
2022-09-15T03:56:17.048Z,15.62
2022-09-15T03:57:04.094Z,16.91
2022-09-15T03:57:50.540Z,16.66
2022-09-15T03:58:38.529Z,16.21
2022-09-15T03:59:24.960Z,15.01
2022-09-15T04:00:12.082Z,15.93
2022-09-15T04:00:59.062Z,16.71
2022-09-15T04:01:46.572Z,16.02
2022-09-15T04:02:33.098Z,16.61
2022-09-15T04:03:19.545Z,17.31
2022-09-15T04:04:06.795Z,15.74
2022-09-15T04:04:53.267Z,14.50
2022-09-15T04:05:40.578Z,15.10
2022-09-15T04:06:27.495Z,15.92
2022-09-15T04:07:13.993Z,15.76
2022-09-15T04:08:01.255Z,16.41
2022-09-15T04:08:49.512Z,17.27
2022-09-15T04:09:37.237Z,18.10
2022-09-15T04:10:24.413Z,16.48
2022-09-15T04:11:13.850Z,16.08
2022-09-15T04:12:00.573Z,16.52
2022-09-15T04:12:48.219Z,16.25
2022-09-15T04:13:36.188Z,15.75
2022-09-15T04:14:22.610Z,16.21
2022-09-15T04:15:09.630Z,16.63
2022-09-15T04:16:04.671Z,16.40
2022-09-15T04:16:51.237Z,16.01
2022-09-15T04:17:37.646Z,15.02
2022-09-15T04:18:24.194Z,15.63
2022-09-15T04:19:11.277Z,16.14
2022-09-15T04:19:58.215Z,15.98
2022-09-15T04:20:44.671Z,15.18
2022-09-15T04:21:32.222Z,15.19
2022-09-15T04:22:19.335Z,16.12
2022-09-15T04:23:06.199Z,15.84
2022-09-15T04:23:54.053Z,15.93
2022-09-15T04:24:41.451Z,15.96
2022-09-15T04:25:27.954Z,14.90
2022-09-15T04:26:22.498Z,15.28
2022-09-15T04:27:09.037Z,14.53
2022-09-15T04:27:57.124Z,14.91
2022-09-15T04:28:43.593Z,15.24
2022-09-15T04:29:30.052Z,15.59
2022-09-15T04:30:16.679Z,14.72
2022-09-15T04:31:11.016Z,14.58
2022-09-15T04:31:58.187Z,14.21
2022-09-15T04:32:44.709Z,14.84
2022-09-15T04:33:32.262Z,15.75
2022-09-15T04:34:18.775Z,15.09
2022-09-15T04:35:05.792Z,14.28
2022-09-15T04:35:58.853Z,14.60
2022-09-15T04:36:47.572Z,15.30
2022-09-15T04:37:34.212Z,15.59
2022-09-15T04:38:20.636Z,15.45
2022-09-15T04:39:07.235Z,14.93
2022-09-15T04:39:53.899Z,14.95
2022-09-15T04:40:40.315Z,15.58
2022-09-15T04:41:27.803Z,15.65
2022-09-15T04:42:15.305Z,15.98
2022-09-15T04:43:01.712Z,15.98
2022-09-15T04:43:48.630Z,15.66
2022-09-15T04:44:35.281Z,15.24
2022-09-15T04:45:21.694Z,14.76
2022-09-15T04:46:08.277Z,15.06
2022-09-15T04:46:54.939Z,15.46
2022-09-15T04:47:41.728Z,16.00
2022-09-15T04:48:31.637Z,15.74
2022-09-15T04:49:18.044Z,14.44
2022-09-15T04:50:04.847Z,14.30
2022-09-15T04:50:52.176Z,14.61
2022-09-15T04:51:38.788Z,14.11
2022-09-15T04:52:25.239Z,14.57
2022-09-15T04:53:11.665Z,13.78
2022-09-15T04:53:58.623Z,14.38
2022-09-15T04:54:45.529Z,14.47
2022-09-15T04:55:33.445Z,14.72
2022-09-15T04:56:23.375Z,13.82
2022-09-15T04:57:10.098Z,12.90
2022-09-15T04:57:57.859Z,13.03
2022-09-15T04:58:52.198Z,13.12
2022-09-15T04:59:38.757Z,13.23
2022-09-15T05:00:26.412Z,13.85
2022-09-15T05:01:15.497Z,14.11
2022-09-15T05:02:02.276Z,13.39
2022-09-15T05:02:48.749Z,13.02
2022-09-15T05:03:38.311Z,13.14
2022-09-15T05:04:24.792Z,13.24
2022-09-15T05:05:11.250Z,13.26
2022-09-15T05:05:57.705Z,13.04
2022-09-15T05:06:44.168Z,14.39
2022-09-15T05:07:30.603Z,14.13
2022-09-15T05:08:18.338Z,13.41
2022-09-15T05:09:10.198Z,13.13
2022-09-15T05:09:57.127Z,12.96
2022-09-15T05:10:43.582Z,13.82
2022-09-15T05:11:30.998Z,13.79
2022-09-15T05:12:17.469Z,12.63
2022-09-15T05:13:03.933Z,13.10
2022-09-15T05:13:50.955Z,13.80
2022-09-15T05:14:37.387Z,13.41
2022-09-15T05:15:24.140Z,13.92
2022-09-15T05:16:14.231Z,14.15
2022-09-15T05:17:00.950Z,14.23
2022-09-15T05:17:47.537Z,14.21
2022-09-15T05:18:34.999Z,13.85
2022-09-15T05:19:21.625Z,14.50
2022-09-15T05:20:08.409Z,14.46
2022-09-15T05:20:59.744Z,13.74
2022-09-15T05:21:46.422Z,13.26
2022-09-15T05:22:32.842Z,13.27
2022-09-15T05:23:19.267Z,13.44
2022-09-15T05:24:05.942Z,13.48
2022-09-15T05:24:52.461Z,14.63
2022-09-15T05:25:40.057Z,13.71
2022-09-15T05:26:29.876Z,13.73
2022-09-15T05:27:16.795Z,14.59
2022-09-15T05:28:03.217Z,13.46
2022-09-15T05:28:50.185Z,13.05
2022-09-15T05:29:36.565Z,12.22
2022-09-15T05:30:37.714Z,12.89
2022-09-15T05:31:31.485Z,13.04
2022-09-15T05:32:18.005Z,13.07
2022-09-15T05:33:05.518Z,13.73
2022-09-15T05:33:53.000Z,13.28
2022-09-15T05:34:39.389Z,13.41
2022-09-15T05:35:25.818Z,13.07
2022-09-15T05:36:14.264Z,13.55
2022-09-15T05:37:01.041Z,12.72
2022-09-15T05:37:47.435Z,12.59
2022-09-15T05:38:34.406Z,12.64
2022-09-15T05:39:20.817Z,13.29
2022-09-15T05:40:10.313Z,12.66
2022-09-15T05:41:23.641Z,12.98
2022-09-15T05:42:10.245Z,13.21
2022-09-15T05:42:57.434Z,12.58
2022-09-15T05:43:46.021Z,12.53
2022-09-15T05:44:32.553Z,12.55
2022-09-15T05:45:18.987Z,12.59
2022-09-15T05:46:07.564Z,12.78
2022-09-15T05:46:54.315Z,13.27
2022-09-15T05:47:41.017Z,13.34
2022-09-15T05:48:28.796Z,14.14
2022-09-15T05:49:15.565Z,13.79
2022-09-15T05:50:02.041Z,13.83
2022-09-15T05:50:53.648Z,14.18
2022-09-15T05:51:40.396Z,13.62
2022-09-15T05:52:26.938Z,13.44
2022-09-15T05:53:13.336Z,12.82
2022-09-15T05:54:00.207Z,12.69
2022-09-15T05:54:46.586Z,13.25
2022-09-15T05:55:37.982Z,12.92
2022-09-15T05:56:24.525Z,13.00
2022-09-15T05:57:10.915Z,12.65
2022-09-15T05:57:57.455Z,12.96
2022-09-15T05:58:46.746Z,13.16
2022-09-15T05:59:35.924Z,13.31
2022-09-15T06:00:23.284Z,13.33
2022-09-15T06:01:19.663Z,13.44
2022-09-15T06:02:06.366Z,13.40
2022-09-15T06:02:53.872Z,14.35
2022-09-15T06:03:40.645Z,14.73
2022-09-15T06:04:28.487Z,14.00
2022-09-15T06:05:14.886Z,13.00
2022-09-15T06:06:03.442Z,13.37
2022-09-15T06:06:49.886Z,13.26
2022-09-15T06:07:36.374Z,13.37
2022-09-15T06:08:22.799Z,13.92
2022-09-15T06:09:09.547Z,14.99
2022-09-15T06:09:56.178Z,13.99
2022-09-15T06:10:42.672Z,14.34
2022-09-15T06:11:33.710Z,14.07
2022-09-15T06:12:20.336Z,12.98
2022-09-15T06:13:07.041Z,13.09
2022-09-15T06:13:54.461Z,13.38
2022-09-15T06:14:44.296Z,13.29
2022-09-15T06:15:31.909Z,14.39
2022-09-15T06:16:21.659Z,13.53
2022-09-15T06:17:08.483Z,14.23
2022-09-15T06:17:54.920Z,13.75
2022-09-15T06:18:42.117Z,14.66
2022-09-15T06:19:28.677Z,13.79
2022-09-15T06:20:15.420Z,14.19
2022-09-15T06:21:10.560Z,15.02
2022-09-15T06:21:56.961Z,14.28
2022-09-15T06:22:43.362Z,14.03
2022-09-15T06:23:30.035Z,14.05
2022-09-15T06:24:16.535Z,14.60
2022-09-15T06:25:03.082Z,16.59
2022-09-15T06:25:49.522Z,16.63
2022-09-15T06:26:35.988Z,15.67
2022-09-15T06:27:22.572Z,15.83
2022-09-15T06:28:09.494Z,15.22
2022-09-15T06:29:01.467Z,15.39
2022-09-15T06:29:48.664Z,16.09
2022-09-15T06:30:35.429Z,15.53
2022-09-15T06:31:23.095Z,16.44
2022-09-15T06:32:09.765Z,16.31
2022-09-15T06:32:56.385Z,15.95
2022-09-15T06:33:48.234Z,16.51
2022-09-15T06:34:34.818Z,16.47
2022-09-15T06:35:21.302Z,16.26
2022-09-15T06:36:08.206Z,16.11
2022-09-15T06:36:54.661Z,17.50
2022-09-15T06:37:41.045Z,17.23
2022-09-15T06:38:27.471Z,16.98
2022-09-15T06:39:14.124Z,16.85
2022-09-15T06:40:01.769Z,16.89
2022-09-15T06:40:56.337Z,16.92
2022-09-15T06:42:01.419Z,17.12
2022-09-15T06:42:49.033Z,16.85
2022-09-15T06:43:36.212Z,16.88
2022-09-15T06:44:22.659Z,16.56
2022-09-15T06:45:09.505Z,16.85
2022-09-15T06:46:04.151Z,16.72
2022-09-15T06:46:50.895Z,16.88
2022-09-15T06:47:37.288Z,16.92
2022-09-15T06:48:25.124Z,16.52
2022-09-15T06:49:12.122Z,17.06
2022-09-15T06:49:59.662Z,16.18
2022-09-15T06:50:53.886Z,16.48
2022-09-15T06:51:40.665Z,16.60
2022-09-15T06:52:27.797Z,17.37
2022-09-15T06:53:14.273Z,17.26
2022-09-15T06:54:02.734Z,17.06
2022-09-15T06:54:50.132Z,16.73
2022-09-15T06:55:36.602Z,16.84
2022-09-15T06:56:23.945Z,17.12
2022-09-15T06:57:10.509Z,17.63
2022-09-15T06:57:56.919Z,17.47
2022-09-15T06:58:44.906Z,16.63
2022-09-15T06:59:31.636Z,16.90
2022-09-15T07:00:20.098Z,17.76
2022-09-15T07:01:10.101Z,16.75
2022-09-15T07:01:57.525Z,17.15
2022-09-15T07:02:49.228Z,17.33
2022-09-15T07:03:37.541Z,18.03
2022-09-15T07:04:24.152Z,17.16
2022-09-15T07:05:10.974Z,17.82
2022-09-15T07:05:59.361Z,18.20
2022-09-15T07:06:46.047Z,17.75
2022-09-15T07:07:32.465Z,18.25
2022-09-15T07:08:18.931Z,17.84
2022-09-15T07:09:06.420Z,17.58
2022-09-15T07:09:52.991Z,17.40
2022-09-15T07:10:43.097Z,16.44
2022-09-15T07:11:30.832Z,17.74
2022-09-15T07:12:17.294Z,17.75
2022-09-15T07:13:03.859Z,17.39
2022-09-15T07:13:51.685Z,18.07
2022-09-15T07:14:38.197Z,17.75
2022-09-15T07:15:25.943Z,17.69
2022-09-15T07:16:14.532Z,17.99
2022-09-15T07:17:00.993Z,18.36
2022-09-15T07:17:47.391Z,18.64
2022-09-15T07:18:38.581Z,17.79
2022-09-15T07:19:27.920Z,18.74
2022-09-15T07:20:14.452Z,18.77
2022-09-15T07:21:04.852Z,19.03
2022-09-15T07:21:52.742Z,18.36
2022-09-15T07:22:39.169Z,18.57
2022-09-15T07:23:25.881Z,19.67
2022-09-15T07:24:12.993Z,18.92
2022-09-15T07:24:59.436Z,19.13
2022-09-15T07:25:45.978Z,19.81
2022-09-15T07:26:33.769Z,19.95
2022-09-15T07:27:22.528Z,19.08
2022-09-15T07:28:08.959Z,19.53
2022-09-15T07:29:01.654Z,18.54
2022-09-15T07:29:48.054Z,18.63
2022-09-15T07:30:35.355Z,17.84
2022-09-15T07:31:24.614Z,18.25
2022-09-15T07:32:11.100Z,18.34
2022-09-15T07:32:57.667Z,18.19
2022-09-15T07:33:44.943Z,18.81
2022-09-15T07:34:31.655Z,18.88
2022-09-15T07:35:18.636Z,18.89
2022-09-15T07:36:07.543Z,18.52
2022-09-15T07:36:53.970Z,19.64
2022-09-15T07:37:40.422Z,19.71
2022-09-15T07:38:27.105Z,19.28
2022-09-15T07:39:13.747Z,19.29
2022-09-15T07:40:00.351Z,19.14
2022-09-15T07:40:48.986Z,19.12
2022-09-15T07:41:35.528Z,20.19
2022-09-15T07:42:21.967Z,21.04
2022-09-15T07:43:08.525Z,19.63
2022-09-15T07:43:57.621Z,19.88
2022-09-15T07:44:44.433Z,19.50
2022-09-15T07:45:31.753Z,19.56
2022-09-15T07:46:20.104Z,20.75
2022-09-15T07:47:06.554Z,20.24
2022-09-15T07:47:52.979Z,20.43
2022-09-15T07:48:39.532Z,21.06
2022-09-15T07:49:26.446Z,20.79
2022-09-15T07:50:14.266Z,21.18
2022-09-15T07:51:00.790Z,21.31
2022-09-15T07:51:47.174Z,21.14
2022-09-15T07:52:33.669Z,20.75
2022-09-15T07:53:20.998Z,20.13
2022-09-15T07:54:07.491Z,19.94
2022-09-15T07:54:54.028Z,20.40
2022-09-15T07:55:40.584Z,20.36
2022-09-15T07:56:27.324Z,21.22
2022-09-15T07:57:14.138Z,20.79
2022-09-15T07:58:01.145Z,21.89
2022-09-15T07:58:49.032Z,22.27
2022-09-15T07:59:39.330Z,21.93
2022-09-15T08:00:27.975Z,22.54
2022-09-15T08:01:16.226Z,23.17
2022-09-15T08:02:02.788Z,22.75
2022-09-15T08:02:49.495Z,22.03
2022-09-15T08:03:39.402Z,22.17
2022-09-15T08:04:25.909Z,22.35
2022-09-15T08:05:12.341Z,22.29
2022-09-15T08:06:00.274Z,22.69
2022-09-15T08:06:46.675Z,22.30
2022-09-15T08:07:33.160Z,21.38
2022-09-15T08:08:19.639Z,21.93
2022-09-15T08:09:06.284Z,21.94
2022-09-15T08:09:52.810Z,21.73
2022-09-15T08:10:41.672Z,22.32
2022-09-15T08:11:28.862Z,22.42
2022-09-15T08:12:15.509Z,22.38
2022-09-15T08:13:01.901Z,22.65
2022-09-15T08:13:50.345Z,22.18
2022-09-15T08:14:37.010Z,22.77
2022-09-15T08:15:23.737Z,22.40
2022-09-15T08:16:15.972Z,22.65
2022-09-15T08:17:08.134Z,23.29
2022-09-15T08:17:57.177Z,22.29
2022-09-15T08:18:44.627Z,21.51
2022-09-15T08:19:33.420Z,21.82
2022-09-15T08:20:20.637Z,21.10
2022-09-15T08:21:10.732Z,20.45
2022-09-15T08:21:57.295Z,21.55
2022-09-15T08:22:45.500Z,23.08
2022-09-15T08:23:32.439Z,22.58
2022-09-15T08:24:19.252Z,22.63
2022-09-15T08:25:06.718Z,21.80
2022-09-15T08:25:53.231Z,22.78
2022-09-15T08:26:39.971Z,22.71
2022-09-15T08:27:26.399Z,22.09
2022-09-15T08:28:12.851Z,22.22
2022-09-15T08:28:59.311Z,22.42
2022-09-15T08:29:45.874Z,22.87
2022-09-15T08:30:32.803Z,23.36
2022-09-15T08:31:19.576Z,23.31
2022-09-15T08:32:06.100Z,22.49
2022-09-15T08:32:53.189Z,23.08
2022-09-15T08:33:45.440Z,23.18
2022-09-15T08:34:32.282Z,23.44
2022-09-15T08:35:19.690Z,23.96
2022-09-15T08:36:12.292Z,23.80
2022-09-15T08:36:58.771Z,24.04
2022-09-15T08:37:47.123Z,24.47
2022-09-15T08:38:34.515Z,24.28
2022-09-15T08:39:20.972Z,24.32
2022-09-15T08:40:16.746Z,25.67
2022-09-15T08:41:07.558Z,25.56
2022-09-15T08:41:55.809Z,25.17
2022-09-15T08:42:46.491Z,23.93
2022-09-15T08:43:43.971Z,23.24
2022-09-15T08:44:43.774Z,23.79
2022-09-15T08:45:47.740Z,23.02
2022-09-15T08:46:47.748Z,22.68
2022-09-15T08:47:40.689Z,22.60
2022-09-15T08:48:34.252Z,21.57
2022-09-15T08:49:47.544Z,21.09
2022-09-15T08:50:41.688Z,21.39
2022-09-15T08:51:41.595Z,20.90
2022-09-15T08:52:41.470Z,21.29
2022-09-15T08:53:38.398Z,21.80
2022-09-15T08:54:29.151Z,22.03
2022-09-15T08:55:37.658Z,22.74
2022-09-15T08:56:24.301Z,22.13
2022-09-15T08:57:18.975Z,22.05
2022-09-15T08:58:06.284Z,22.48
2022-09-15T08:58:53.021Z,22.98
2022-09-15T08:59:40.015Z,23.47
2022-09-15T09:00:27.237Z,22.90
2022-09-15T09:01:19.744Z,23.71
2022-09-15T09:02:12.236Z,23.24
2022-09-15T09:03:44.997Z,23.18
2022-09-15T09:04:47.612Z,22.44
2022-09-15T09:05:49.687Z,21.47
2022-09-15T09:06:43.248Z,21.24
2022-09-15T09:08:22.780Z,20.14
2022-09-15T09:09:09.379Z,20.61
2022-09-15T09:10:24.682Z,21.43
2022-09-15T09:11:34.872Z,20.04
2022-09-15T09:13:05.689Z,21.62
2022-09-15T09:14:17.649Z,20.30
2022-09-15T09:15:39.523Z,21.06
2022-09-15T09:17:05.437Z,19.81
2022-09-15T09:18:20.992Z,18.31
2022-09-15T09:19:35.758Z,17.64
2022-09-15T09:20:29.252Z,18.06
2022-09-15T09:21:27.608Z,18.06
2022-09-15T09:22:19.875Z,17.86
2022-09-15T09:23:15.871Z,17.76
2022-09-15T09:24:25.427Z,17.06
2022-09-15T09:25:27.070Z,16.22
2022-09-15T09:26:14.584Z,17.50
2022-09-15T09:27:01.098Z,16.43
2022-09-15T09:27:49.099Z,16.63
2022-09-15T09:28:46.219Z,16.89
2022-09-15T09:29:44.688Z,17.04
2022-09-15T09:30:36.109Z,17.16
2022-09-15T09:31:25.679Z,18.24
2022-09-15T09:32:21.968Z,16.90
2022-09-15T09:33:34.339Z,18.61
2022-09-15T09:34:54.161Z,18.39
2022-09-15T09:35:40.556Z,18.81
2022-09-15T09:36:27.045Z,19.17
2022-09-15T09:37:15.671Z,18.58
2022-09-15T09:38:02.522Z,17.99
2022-09-15T09:38:50.612Z,17.15
2022-09-15T09:39:37.561Z,16.40
2022-09-15T09:40:24.112Z,15.64
2022-09-15T09:41:22.150Z,16.21
2022-09-15T09:42:19.487Z,16.28
2022-09-15T09:43:05.910Z,15.83
2022-09-15T09:43:55.647Z,16.35
2022-09-15T09:44:43.876Z,16.75
2022-09-15T09:45:30.288Z,16.46
2022-09-15T09:46:19.133Z,16.14
2022-09-15T09:47:05.692Z,15.39
2022-09-15T09:47:52.911Z,15.88
2022-09-15T09:48:45.144Z,16.17
2022-09-15T09:49:39.224Z,16.62
2022-09-15T09:50:44.360Z,16.70
2022-09-15T09:51:40.340Z,16.49
2022-09-15T09:52:35.863Z,15.21
2022-09-15T09:53:31.530Z,16.44
2022-09-15T09:54:20.629Z,16.39
2022-09-15T09:55:23.230Z,16.26
2022-09-15T09:56:23.521Z,15.66
2022-09-15T09:57:12.734Z,16.31
2022-09-15T09:58:20.640Z,17.27
2022-09-15T09:59:38.434Z,16.17
2022-09-15T10:00:34.829Z,16.86
2022-09-15T10:01:30.172Z,15.49
2022-09-15T10:02:20.536Z,16.03
2022-09-15T10:03:19.786Z,16.05
2022-09-15T10:04:19.118Z,15.48
2022-09-15T10:05:06.739Z,15.62
2022-09-15T10:06:14.493Z,16.97
2022-09-15T10:07:01.058Z,15.58
2022-09-15T10:07:47.529Z,16.51
2022-09-15T10:08:36.872Z,16.41
2022-09-15T10:09:23.444Z,15.94
2022-09-15T10:10:23.733Z,16.61
2022-09-15T10:11:10.496Z,15.74
2022-09-15T10:12:04.272Z,16.07
2022-09-15T10:12:56.379Z,17.16
2022-09-15T10:13:52.758Z,15.85
2022-09-15T10:14:45.395Z,15.66
2022-09-15T10:15:35.713Z,14.15
2022-09-15T10:16:22.957Z,15.66
2022-09-15T10:17:14.963Z,16.28
2022-09-15T10:18:01.918Z,15.48
2022-09-15T10:18:54.368Z,14.64
2022-09-15T10:19:49.634Z,14.69
2022-09-15T10:20:49.992Z,13.36
2022-09-15T10:21:39.713Z,14.25
2022-09-15T10:22:37.106Z,14.73
2022-09-15T10:23:27.271Z,14.72
2022-09-15T10:24:40.995Z,15.19
2022-09-15T10:25:39.544Z,14.75
2022-09-15T10:26:34.339Z,14.24
2022-09-15T10:27:28.613Z,14.41
2022-09-15T10:28:22.969Z,13.45
2022-09-15T10:29:13.934Z,12.87
2022-09-15T10:30:12.833Z,11.15
2022-09-15T10:31:13.186Z,9.91
2022-09-15T10:32:38.927Z,8.88
2022-09-15T10:33:28.943Z,8.50
2022-09-15T10:34:24.202Z,9.31
2022-09-15T10:35:18.586Z,10.36
2022-09-15T10:36:18.746Z,9.97
2022-09-15T10:37:18.722Z,10.47
2022-09-15T10:38:21.774Z,9.75
2022-09-15T10:39:43.849Z,10.13
2022-09-15T10:40:58.529Z,9.96
2022-09-15T10:42:07.621Z,9.78
2022-09-15T10:43:03.615Z,9.42
2022-09-15T10:44:27.767Z,9.57
2022-09-15T10:45:26.208Z,8.59
2022-09-15T10:46:18.939Z,9.03
2022-09-15T10:47:20.495Z,9.56
2022-09-15T10:48:29.282Z,9.18
2022-09-15T10:49:53.005Z,8.46
2022-09-15T10:51:19.563Z,8.17
2022-09-15T10:52:22.307Z,8.01
2022-09-15T10:53:42.366Z,7.36
2022-09-15T10:54:53.663Z,7.70
2022-09-15T10:55:53.527Z,7.68
2022-09-15T10:56:48.865Z,7.24
2022-09-15T10:57:48.831Z,6.46
2022-09-15T10:58:52.009Z,6.15
2022-09-15T10:59:53.452Z,5.99
2022-09-15T11:01:01.856Z,5.37